createdAt,value
2022-11-24T00:01:05.901Z,4.27
2022-11-24T00:03:32.760Z,4.10
2022-11-24T00:06:04.283Z,3.53
2022-11-24T00:08:30.637Z,4.30
2022-11-24T00:11:02.573Z,4.23
2022-11-24T00:13:28.896Z,4.33
2022-11-24T00:15:55.220Z,3.40
2022-11-24T00:18:21.503Z,4.40
2022-11-24T00:20:53.671Z,3.67
2022-11-24T00:23:20.004Z,3.60
2022-11-24T00:25:46.316Z,3.53
2022-11-24T00:28:12.687Z,3.73
2022-11-24T00:30:39.017Z,4.70
2022-11-24T00:33:05.348Z,4.60
2022-11-24T00:35:31.664Z,4.13
2022-11-24T00:37:57.960Z,3.60
2022-11-24T00:40:24.311Z,4.53
2022-11-24T00:42:50.633Z,5.20
2022-11-24T00:45:16.967Z,3.80
2022-11-24T00:47:43.385Z,3.63
2022-11-24T00:50:10.070Z,4.30
2022-11-24T00:52:36.384Z,4.17
2022-11-24T00:55:02.880Z,4.67
2022-11-24T00:57:29.179Z,4.23
2022-11-24T00:59:55.468Z,4.07
2022-11-24T01:02:21.792Z,3.03
2022-11-24T01:04:48.196Z,4.27
2022-11-24T01:07:14.656Z,3.80
2022-11-24T01:09:43.118Z,3.93
2022-11-24T01:12:09.488Z,4.07
2022-11-24T01:14:36.254Z,3.93
2022-11-24T01:17:02.948Z,5.13
2022-11-24T01:19:29.256Z,5.07
2022-11-24T01:21:55.600Z,6.03
2022-11-24T01:24:22.007Z,4.03
2022-11-24T01:26:48.308Z,4.57
2022-11-24T01:29:14.755Z,3.73
2022-11-24T01:31:41.228Z,3.97
2022-11-24T01:34:07.708Z,4.97
2022-11-24T01:36:34.136Z,6.20
2022-11-24T01:39:00.500Z,4.40
2022-11-24T01:41:27.082Z,5.47
2022-11-24T01:43:54.749Z,3.57
2022-11-24T01:46:24.121Z,3.90
2022-11-24T01:49:08.769Z,6.63
2022-11-24T01:51:57.916Z,5.30
2022-11-24T01:54:39.074Z,3.97
2022-11-24T01:57:28.057Z,3.90
2022-11-24T01:59:59.845Z,4.00
2022-11-24T02:02:28.524Z,4.00
2022-11-24T02:04:58.720Z,4.43
2022-11-24T02:07:25.927Z,3.00
2022-11-24T02:09:55.787Z,2.97
2022-11-24T02:12:24.440Z,2.97
2022-11-24T02:14:52.019Z,3.57
2022-11-24T02:17:18.313Z,3.17
2022-11-24T02:19:57.344Z,3.77
2022-11-24T02:22:45.394Z,3.67
2022-11-24T02:25:27.839Z,3.10
2022-11-24T02:27:55.814Z,3.60
2022-11-24T02:30:22.365Z,3.37
2022-11-24T02:32:49.758Z,3.20
2022-11-24T02:35:16.104Z,3.40
2022-11-24T02:37:42.486Z,3.33
2022-11-24T02:40:09.529Z,3.57
2022-11-24T02:42:40.268Z,3.67
2022-11-24T02:45:09.098Z,2.87
2022-11-24T02:47:35.394Z,3.77
2022-11-24T02:50:01.759Z,3.07
2022-11-24T02:52:28.100Z,2.97
2022-11-24T02:54:54.408Z,2.97
2022-11-24T02:57:23.087Z,4.00
2022-11-24T02:59:49.466Z,3.70
2022-11-24T03:02:15.845Z,4.03
2022-11-24T03:04:44.490Z,3.27
2022-11-24T03:07:10.869Z,2.97
2022-11-24T03:09:37.203Z,2.43
2022-11-24T03:12:04.872Z,2.77
2022-11-24T03:14:31.337Z,3.27
2022-11-24T03:16:58.027Z,3.10
2022-11-24T03:19:24.340Z,3.53
2022-11-24T03:21:50.674Z,3.63
2022-11-24T03:24:16.983Z,3.73
2022-11-24T03:26:43.313Z,3.70
2022-11-24T03:29:09.629Z,3.90
2022-11-24T03:31:35.996Z,3.30
2022-11-24T03:34:02.402Z,3.33
2022-11-24T03:36:28.703Z,3.57
2022-11-24T03:38:55.048Z,5.20
2022-11-24T03:41:21.697Z,4.23
2022-11-24T03:43:48.012Z,3.83
2022-11-24T03:46:14.373Z,5.37
2022-11-24T03:48:40.723Z,4.30
2022-11-24T03:51:07.348Z,5.00
2022-11-24T03:53:34.160Z,4.03
2022-11-24T03:56:01.851Z,6.00
2022-11-24T03:58:28.950Z,4.70
2022-11-24T04:00:56.055Z,3.23
2022-11-24T04:03:23.115Z,3.57
2022-11-24T04:05:49.487Z,3.40
2022-11-24T04:08:16.701Z,3.80
2022-11-24T04:10:43.486Z,5.80
2022-11-24T04:13:17.640Z,4.47
2022-11-24T04:15:44.533Z,5.10
2022-11-24T04:18:12.675Z,3.33
2022-11-24T04:20:40.389Z,3.73
2022-11-24T04:23:06.935Z,3.77
2022-11-24T04:25:33.844Z,3.50
2022-11-24T04:28:00.169Z,3.40
2022-11-24T04:30:28.360Z,3.57
2022-11-24T04:32:55.270Z,3.90
2022-11-24T04:35:21.621Z,4.53
2022-11-24T04:37:48.054Z,4.30
2022-11-24T04:40:14.922Z,3.60
2022-11-24T04:42:41.487Z,3.30
2022-11-24T04:45:08.791Z,3.40
2022-11-24T04:47:35.156Z,4.00
2022-11-24T04:50:01.609Z,4.00
2022-11-24T04:52:29.888Z,3.83
2022-11-24T04:54:56.179Z,2.93
2022-11-24T04:57:25.311Z,3.17
2022-11-24T04:59:52.591Z,4.00
2022-11-24T05:02:19.558Z,3.83
2022-11-24T05:04:46.445Z,2.83
2022-11-24T05:07:18.288Z,3.30
2022-11-24T05:10:04.493Z,3.43
2022-11-24T05:12:31.325Z,4.40
2022-11-24T05:15:02.278Z,3.57
2022-11-24T05:17:30.644Z,4.43
2022-11-24T05:19:57.660Z,4.40
2022-11-24T05:22:23.994Z,4.93
2022-11-24T05:24:50.353Z,3.80
2022-11-24T05:27:16.729Z,4.07
2022-11-24T05:29:43.114Z,3.93
2022-11-24T05:32:09.820Z,3.37
2022-11-24T05:34:36.434Z,3.67
2022-11-24T05:37:03.694Z,4.70
2022-11-24T05:39:34.533Z,4.07
2022-11-24T05:42:25.865Z,3.97
2022-11-24T05:44:52.915Z,3.97
2022-11-24T05:47:19.810Z,4.80
2022-11-24T05:49:46.148Z,4.17
2022-11-24T05:52:12.573Z,4.23
2022-11-24T05:54:38.880Z,4.03
2022-11-24T05:57:05.302Z,4.20
2022-11-24T05:59:31.654Z,4.43
2022-11-24T06:01:58.047Z,4.00
2022-11-24T06:04:24.436Z,4.13
2022-11-24T06:06:50.823Z,3.80
2022-11-24T06:09:17.279Z,4.53
2022-11-24T06:11:43.649Z,4.33
2022-11-24T06:14:11.551Z,3.67
2022-11-24T06:16:38.338Z,3.63
2022-11-24T06:19:04.855Z,3.83
2022-11-24T06:21:31.736Z,3.80
2022-11-24T06:23:58.250Z,3.77
2022-11-24T06:26:24.612Z,3.73
2022-11-24T06:28:50.936Z,4.10
2022-11-24T06:31:17.288Z,5.23
2022-11-24T06:33:43.635Z,4.73
2022-11-24T06:36:13.072Z,5.67
2022-11-24T06:38:39.486Z,3.80
2022-11-24T06:41:09.408Z,4.50
2022-11-24T06:43:36.488Z,4.93
2022-11-24T06:46:03.809Z,4.00
2022-11-24T06:48:30.708Z,4.10
2022-11-24T06:51:01.278Z,4.20
2022-11-24T06:53:33.537Z,3.90
2022-11-24T06:56:01.460Z,4.50
2022-11-24T06:58:28.011Z,3.70
2022-11-24T07:00:54.482Z,3.90
2022-11-24T07:03:21.027Z,3.67
2022-11-24T07:05:47.491Z,4.57
2022-11-24T07:08:17.766Z,3.23
2022-11-24T07:10:44.583Z,3.93
2022-11-24T07:13:10.868Z,3.87
2022-11-24T07:15:37.351Z,3.80
2022-11-24T07:18:03.837Z,3.40
2022-11-24T07:20:30.306Z,3.40
2022-11-24T07:22:57.819Z,4.20
2022-11-24T07:25:27.546Z,3.60
2022-11-24T07:27:57.978Z,2.93
2022-11-24T07:30:25.355Z,3.67
2022-11-24T07:32:51.685Z,3.43
2022-11-24T07:35:18.016Z,3.43
2022-11-24T07:37:44.340Z,3.47
2022-11-24T07:40:11.288Z,4.20
2022-11-24T07:42:37.596Z,2.87
2022-11-24T07:45:04.196Z,3.33
2022-11-24T07:47:30.508Z,2.53
2022-11-24T07:49:56.803Z,3.07
2022-11-24T07:52:26.460Z,2.33
2022-11-24T07:54:52.767Z,3.30
2022-11-24T07:57:19.076Z,2.70
2022-11-24T07:59:45.375Z,2.63
2022-11-24T08:02:13.029Z,2.60
2022-11-24T08:04:39.418Z,2.57
2022-11-24T08:07:05.784Z,3.37
2022-11-24T08:09:32.099Z,2.67
2022-11-24T08:11:58.408Z,3.27
2022-11-24T08:14:24.728Z,2.27
2022-11-24T08:16:51.106Z,2.60
2022-11-24T08:19:17.525Z,2.43
2022-11-24T08:21:43.842Z,3.03
2022-11-24T08:24:10.317Z,2.50
2022-11-24T08:26:36.690Z,2.90
2022-11-24T08:29:03.038Z,2.70
2022-11-24T08:31:36.072Z,2.87
2022-11-24T08:34:03.915Z,2.70
2022-11-24T08:36:30.307Z,2.63
2022-11-24T08:38:58.124Z,2.67
2022-11-24T08:41:25.443Z,2.63
2022-11-24T08:43:51.832Z,2.37
2022-11-24T08:46:18.995Z,2.50
2022-11-24T08:48:49.971Z,3.13
2022-11-24T08:51:19.653Z,2.53
2022-11-24T08:53:46.064Z,2.83
2022-11-24T08:56:13.314Z,2.77
2022-11-24T08:58:40.238Z,2.57
2022-11-24T09:01:13.019Z,2.60
2022-11-24T09:03:43.519Z,2.27
2022-11-24T09:06:15.071Z,2.20
2022-11-24T09:08:41.928Z,2.00
2022-11-24T09:11:10.344Z,2.77
2022-11-24T09:13:37.530Z,2.60
2022-11-24T09:16:04.856Z,2.80
2022-11-24T09:18:31.412Z,1.83
2022-11-24T09:21:12.477Z,2.23
2022-11-24T09:23:39.901Z,3.27
2022-11-24T09:26:14.232Z,2.57
2022-11-24T09:28:41.517Z,2.57
2022-11-24T09:31:10.944Z,3.83
2022-11-24T09:33:38.149Z,2.57
2022-11-24T09:36:05.767Z,2.83
2022-11-24T09:38:32.621Z,2.93
2022-11-24T09:41:26.678Z,2.77
2022-11-24T09:44:02.087Z,3.20
2022-11-24T09:46:51.937Z,3.13
2022-11-24T09:49:33.264Z,3.27
2022-11-24T09:52:03.155Z,3.70
2022-11-24T09:54:32.862Z,3.53
2022-11-24T09:57:01.392Z,4.13
2022-11-24T09:59:28.349Z,3.47
2022-11-24T10:01:55.669Z,3.67
2022-11-24T10:04:25.148Z,4.10
2022-11-24T10:07:09.484Z,3.70
2022-11-24T10:09:38.763Z,3.60
2022-11-24T10:12:46.963Z,3.80
2022-11-24T10:15:25.438Z,4.27
2022-11-24T10:18:18.332Z,3.80
2022-11-24T10:21:09.346Z,3.50
2022-11-24T10:23:58.817Z,3.57
2022-11-24T10:26:48.626Z,4.00
2022-11-24T10:29:24.776Z,4.40
2022-11-24T10:31:54.937Z,3.30
2022-11-24T10:34:28.725Z,3.60
2022-11-24T10:37:01.708Z,3.20
2022-11-24T10:39:46.556Z,3.37
2022-11-24T10:42:26.420Z,3.97
2022-11-24T10:45:01.258Z,3.13
2022-11-24T10:47:28.537Z,3.03
2022-11-24T10:50:15.181Z,3.83
2022-11-24T10:52:45.035Z,3.33
2022-11-24T10:55:11.483Z,4.23
2022-11-24T10:57:39.358Z,3.67
2022-11-24T11:00:20.836Z,4.77
2022-11-24T11:03:09.696Z,3.47
2022-11-24T11:05:43.031Z,3.73
2022-11-24T11:08:10.453Z,3.90
2022-11-24T11:10:36.837Z,3.80
2022-11-24T11:13:21.284Z,4.10
2022-11-24T11:15:47.764Z,3.17
2022-11-24T11:18:17.353Z,3.63
2022-11-24T11:21:24.753Z,4.10
2022-11-24T11:23:51.697Z,3.93
2022-11-24T11:26:24.299Z,3.80
2022-11-24T11:34:46.796Z,4.03
2022-11-24T11:37:14.567Z,4.23
2022-11-24T11:39:48.437Z,3.53
2022-11-24T11:45:23.863Z,4.20
2022-11-24T11:48:05.351Z,4.30
2022-11-24T11:51:21.111Z,4.03
2022-11-24T11:53:44.661Z,4.33
2022-11-24T11:56:40.139Z,4.10
2022-11-24T11:59:43.226Z,3.57
2022-11-24T12:02:47.259Z,3.43
2022-11-24T12:05:42.091Z,3.80
2022-11-24T12:09:11.700Z,4.07
2022-11-24T12:11:40.423Z,4.23
2022-11-24T12:14:39.291Z,3.47
2022-11-24T12:17:39.974Z,4.33
2022-11-24T12:20:24.726Z,5.27
2022-11-24T12:23:06.505Z,3.70
2022-11-24T12:25:41.850Z,4.80
2022-11-24T12:28:17.473Z,3.97
2022-11-24T12:31:05.675Z,3.50
2022-11-24T12:33:49.107Z,3.60
2022-11-24T12:36:23.190Z,5.27
2022-11-24T12:39:05.321Z,3.83
2022-11-24T12:41:53.150Z,3.93
2022-11-24T12:44:52.244Z,3.40
2022-11-24T12:47:27.109Z,4.13
2022-11-24T12:50:20.072Z,4.40
2022-11-24T12:53:15.855Z,5.90
2022-11-24T12:55:43.627Z,4.63
2022-11-24T12:58:32.012Z,4.03
2022-11-24T13:01:16.692Z,3.73
2022-11-24T13:04:19.025Z,4.30
2022-11-24T13:07:21.274Z,2.57
2022-11-24T13:10:46.510Z,3.27
2022-11-24T13:13:15.285Z,3.77
2022-11-24T13:16:35.181Z,3.13
2022-11-24T13:19:13.821Z,3.13
2022-11-24T13:21:40.274Z,3.07
2022-11-24T13:24:23.145Z,2.90
2022-11-24T13:26:52.755Z,3.20
2022-11-24T13:29:27.968Z,3.23
2022-11-24T13:31:55.363Z,3.53
2022-11-24T13:34:40.243Z,4.10
2022-11-24T13:37:31.293Z,3.23
2022-11-24T13:40:22.369Z,4.37
2022-11-24T13:42:54.736Z,3.57
2022-11-24T13:45:39.780Z,4.17
2022-11-24T13:48:26.599Z,4.13
2022-11-24T13:50:58.818Z,3.90
2022-11-24T13:53:43.631Z,3.87
2022-11-24T13:56:12.922Z,3.67
2022-11-24T13:58:48.574Z,4.47
2022-11-24T14:01:28.493Z,3.90
2022-11-24T14:04:32.274Z,4.53
2022-11-24T14:07:14.214Z,3.73
2022-11-24T14:09:47.357Z,3.27
2022-11-24T14:12:20.123Z,4.00
2022-11-24T14:14:49.026Z,2.67
2022-11-24T14:17:25.388Z,3.10
2022-11-24T14:19:53.975Z,3.47
2022-11-24T14:22:36.771Z,2.93
2022-11-24T14:25:03.929Z,2.60
2022-11-24T14:27:33.638Z,3.17
2022-11-24T14:30:02.426Z,2.53
2022-11-24T14:32:28.881Z,3.13
2022-11-24T14:34:56.694Z,3.13
2022-11-24T14:37:23.208Z,4.67
2022-11-24T14:39:49.551Z,3.43
2022-11-24T14:42:19.886Z,3.27
2022-11-24T14:44:56.486Z,3.20
2022-11-24T14:47:33.168Z,3.20
2022-11-24T14:50:09.917Z,3.53
2022-11-24T14:52:45.682Z,2.63
2022-11-24T14:55:35.085Z,3.40
2022-11-24T14:58:01.658Z,2.10
2022-11-24T15:00:31.056Z,2.67
2022-11-24T15:03:00.305Z,2.43
2022-11-24T15:05:57.099Z,2.87
2022-11-24T15:08:26.156Z,2.73
2022-11-24T15:10:58.506Z,3.73
2022-11-24T15:13:25.524Z,2.93
2022-11-24T15:16:01.828Z,3.00
2022-11-24T15:18:34.149Z,3.93
2022-11-24T15:21:00.815Z,4.03
2022-11-24T15:23:29.606Z,2.93
2022-11-24T15:26:02.643Z,3.07
2022-11-24T15:28:32.381Z,3.67
2022-11-24T15:31:03.921Z,3.37
2022-11-24T15:33:31.394Z,4.30
2022-11-24T15:35:59.366Z,3.57
2022-11-24T15:38:25.737Z,4.00
2022-11-24T15:40:54.100Z,3.40
2022-11-24T15:43:39.794Z,3.53
2022-11-24T15:46:07.662Z,4.37
2022-11-24T15:48:34.126Z,5.77
2022-11-24T15:51:05.116Z,9.90
2022-11-24T15:53:37.548Z,8.63
2022-11-24T15:56:07.358Z,7.37
2022-11-24T15:58:33.956Z,6.97
2022-11-24T16:01:00.340Z,8.67
2022-11-24T16:06:23.361Z,7.10
2022-11-24T16:08:50.783Z,5.30
2022-11-24T16:11:17.098Z,5.80
2022-11-24T16:13:46.987Z,4.93
2022-11-24T16:16:18.515Z,9.60
2022-11-24T16:18:45.287Z,4.40
2022-11-24T16:21:11.772Z,5.07
2022-11-24T16:23:38.094Z,4.80
2022-11-24T16:26:05.276Z,5.17
2022-11-24T16:28:31.658Z,4.60
2022-11-24T16:30:58.048Z,4.67
2022-11-24T16:33:24.476Z,5.37
2022-11-24T16:35:50.918Z,4.67
2022-11-24T16:38:18.811Z,6.20
2022-11-24T16:40:50.035Z,5.33
2022-11-24T16:43:16.330Z,6.67
2022-11-24T16:45:45.587Z,5.60
2022-11-24T16:48:12.105Z,5.93
2022-11-24T16:50:38.474Z,4.93
2022-11-24T16:53:04.804Z,5.40
2022-11-24T16:55:31.343Z,4.37
2022-11-24T16:57:57.705Z,4.77
2022-11-24T17:00:24.189Z,4.77
2022-11-24T17:02:50.616Z,4.50
2022-11-24T17:05:17.064Z,4.17
2022-11-24T17:07:43.398Z,5.63
2022-11-24T17:10:10.055Z,6.43
2022-11-24T17:12:37.007Z,6.87
2022-11-24T17:15:31.061Z,7.20
2022-11-24T17:18:22.477Z,7.37
2022-11-24T17:20:37.230Z,6.73
2022-11-24T17:23:03.548Z,6.93
2022-11-24T17:25:32.059Z,7.70
2022-11-24T17:27:58.469Z,6.83
2022-11-24T17:30:24.823Z,7.23
2022-11-24T17:32:56.432Z,7.57
2022-11-24T17:35:23.484Z,6.83
2022-11-24T17:37:49.829Z,7.07
2022-11-24T17:40:34.303Z,9.10
2022-11-24T17:43:01.170Z,6.90
2022-11-24T17:45:28.764Z,7.00
2022-11-24T17:47:56.060Z,6.27
2022-11-24T17:50:25.644Z,7.27
2022-11-24T17:52:53.044Z,5.93
2022-11-24T17:55:19.333Z,5.67
2022-11-24T17:57:45.648Z,5.33
2022-11-24T18:00:12.621Z,5.03
2022-11-24T18:02:39.003Z,4.63
2022-11-24T18:05:05.677Z,4.97
2022-11-24T18:07:32.216Z,4.40
2022-11-24T18:09:58.574Z,5.00
2022-11-24T18:12:24.882Z,4.50
2022-11-24T18:14:51.198Z,3.90
2022-11-24T18:17:17.511Z,4.13
2022-11-24T18:19:43.853Z,4.23
2022-11-24T18:22:10.220Z,3.23
2022-11-24T18:24:36.898Z,3.33
2022-11-24T18:27:03.626Z,3.57
2022-11-24T18:29:30.361Z,3.50
2022-11-24T18:31:56.746Z,4.07
2022-11-24T18:34:24.614Z,3.70
2022-11-24T18:36:52.446Z,3.70
2022-11-24T18:39:19.194Z,3.23
2022-11-24T18:41:46.335Z,3.43
2022-11-24T18:44:12.848Z,3.97
2022-11-24T18:46:39.277Z,3.27
2022-11-24T18:49:06.814Z,4.03
2022-11-24T18:51:33.347Z,2.97
2022-11-24T18:53:59.973Z,3.67
2022-11-24T18:56:26.614Z,4.57
2022-11-24T18:58:54.519Z,4.03
2022-11-24T19:01:23.781Z,4.00
2022-11-24T19:03:52.440Z,4.20
2022-11-24T19:06:21.704Z,4.13
2022-11-24T19:08:48.857Z,4.97
2022-11-24T19:11:27.921Z,4.57
2022-11-24T19:13:55.184Z,4.33
2022-11-24T19:16:22.678Z,5.37
2022-11-24T19:18:53.568Z,3.73
2022-11-24T19:21:21.027Z,4.00
2022-11-24T19:23:47.396Z,5.07
2022-11-24T19:26:13.977Z,4.57
2022-11-24T19:28:40.322Z,4.03
2022-11-24T19:31:08.957Z,3.90
2022-11-24T19:33:35.875Z,4.87
2022-11-24T19:36:07.129Z,3.37
2022-11-24T19:38:35.027Z,3.17
2022-11-24T19:41:07.249Z,4.73
2022-11-24T19:43:33.966Z,4.10
2022-11-24T19:46:02.229Z,4.97
2022-11-24T19:48:33.122Z,4.53
2022-11-24T19:51:07.945Z,4.37
2022-11-24T19:53:35.745Z,3.90
2022-11-24T19:56:09.700Z,4.27
2022-11-24T19:58:36.899Z,5.17
2022-11-24T20:01:07.287Z,4.10
2022-11-24T20:03:34.273Z,4.03
2022-11-24T20:06:00.746Z,4.20
2022-11-24T20:08:35.114Z,4.40
2022-11-24T20:11:06.894Z,4.23
2022-11-24T20:13:38.407Z,4.40
2022-11-24T20:16:10.850Z,5.47
2022-11-24T20:18:42.223Z,4.53
2022-11-24T20:21:11.385Z,5.07
2022-11-24T20:23:38.471Z,4.13
2022-11-24T20:26:19.396Z,3.87
2022-11-24T20:28:46.226Z,5.67
2022-11-24T20:31:18.673Z,5.10
2022-11-24T20:33:45.626Z,4.97
2022-11-24T20:36:20.814Z,3.83
2022-11-24T20:38:48.330Z,4.28
2022-11-24T20:41:18.050Z,3.60
2022-11-24T20:43:45.429Z,3.57
2022-11-24T20:46:26.670Z,3.83
2022-11-24T20:48:53.780Z,3.93
2022-11-24T20:51:22.436Z,6.53
2022-11-24T20:53:49.864Z,3.87
2022-11-24T20:56:36.819Z,4.17
2022-11-24T20:59:04.323Z,4.73
2022-11-24T21:01:38.365Z,4.13
2022-11-24T21:04:10.939Z,4.80
2022-11-24T21:06:37.408Z,4.23
2022-11-24T21:09:04.975Z,4.87
2022-11-24T21:11:31.818Z,4.53
2022-11-24T21:13:58.956Z,4.27
2022-11-24T21:16:31.496Z,3.43
2022-11-24T21:19:00.804Z,4.77
2022-11-24T21:21:33.800Z,4.20
2022-11-24T21:24:04.678Z,4.07
2022-11-24T21:26:31.014Z,4.10
2022-11-24T21:28:57.939Z,4.53
2022-11-24T21:31:24.353Z,4.60
2022-11-24T21:33:53.021Z,5.47
2022-11-24T21:36:24.663Z,4.67
2022-11-24T21:38:55.736Z,5.47
2022-11-24T21:41:23.502Z,4.87
2022-11-24T21:43:50.043Z,4.03
2022-11-24T21:46:16.721Z,4.03
2022-11-24T21:48:43.603Z,3.40
2022-11-24T21:51:15.965Z,4.07
2022-11-24T21:53:44.249Z,4.13
2022-11-24T21:56:13.755Z,4.00
2022-11-24T21:58:45.530Z,3.77
2022-11-24T22:01:12.071Z,4.27
2022-11-24T22:03:38.409Z,4.77
2022-11-24T22:06:04.966Z,4.00
2022-11-24T22:08:31.600Z,3.90
2022-11-24T22:11:02.402Z,4.57
2022-11-24T22:13:28.867Z,4.00
2022-11-24T22:16:09.276Z,4.03
2022-11-24T22:18:38.451Z,4.50
2022-11-24T22:21:06.519Z,4.63
2022-11-24T22:23:34.650Z,4.37
2022-11-24T22:26:12.174Z,3.90
2022-11-24T22:28:39.253Z,4.67
2022-11-24T22:31:07.994Z,4.17
2022-11-24T22:33:34.788Z,4.27
2022-11-24T22:36:01.790Z,4.90
2022-11-24T22:38:29.529Z,4.47
2022-11-24T22:41:04.159Z,3.70
2022-11-24T22:43:35.367Z,4.40
2022-11-24T22:46:05.728Z,4.37
2022-11-24T22:48:32.835Z,4.60
2022-11-24T22:51:07.507Z,4.93
2022-11-24T22:53:34.270Z,4.60
2022-11-24T22:56:05.977Z,4.37
2022-11-24T22:58:33.203Z,4.40
2022-11-24T23:01:06.241Z,4.10
2022-11-24T23:03:34.218Z,4.13
2022-11-24T23:06:09.511Z,5.13
2022-11-24T23:08:36.595Z,3.47
2022-11-24T23:11:06.161Z,4.73
2022-11-24T23:13:32.495Z,4.10
2022-11-24T23:16:09.610Z,4.33
2022-11-24T23:18:36.054Z,4.67
2022-11-24T23:21:15.077Z,6.63
2022-11-24T23:23:42.126Z,3.33
2022-11-24T23:26:11.439Z,3.93
2022-11-24T23:28:38.582Z,4.33
2022-11-24T23:31:13.000Z,3.97
2022-11-24T23:33:39.655Z,3.67
2022-11-24T23:36:11.700Z,4.73
2022-11-24T23:38:39.314Z,3.47
2022-11-24T23:41:10.508Z,4.13
2022-11-24T23:43:38.996Z,3.63
2022-11-24T23:46:08.105Z,4.80
2022-11-24T23:48:35.528Z,4.23
2022-11-24T23:51:20.319Z,4.07
2022-11-24T23:53:47.629Z,3.50
2022-11-24T23:56:17.148Z,3.37
2022-11-24T23:58:43.607Z,3.03
